createdAt,value
2018-12-30T00:02:30.446Z,79.96
2018-12-30T00:05:35.150Z,80.07
2018-12-30T00:08:39.602Z,80.16
2018-12-30T00:11:44.065Z,80.17
2018-12-30T00:14:48.517Z,80.61
2018-12-30T00:17:53.045Z,80.79
2018-12-30T00:20:57.473Z,80.84
2018-12-30T00:24:02.269Z,81.04
2018-12-30T00:27:06.872Z,80.93
2018-12-30T00:30:11.368Z,80.94
2018-12-30T00:33:15.865Z,80.95
2018-12-30T00:36:20.308Z,81.14
2018-12-30T00:39:24.999Z,81.08
2018-12-30T00:42:29.463Z,81.32
2018-12-30T00:45:34.250Z,81.17
2018-12-30T00:48:38.697Z,81.15
2018-12-30T00:51:43.131Z,81.11
2018-12-30T00:54:48.058Z,80.88
2018-12-30T00:57:52.502Z,81.09
2018-12-30T01:00:57.041Z,80.58
2018-12-30T01:04:01.491Z,81.05
2018-12-30T01:07:06.871Z,80.95
2018-12-30T01:10:11.320Z,80.99
2018-12-30T01:13:15.781Z,80.99
2018-12-30T01:16:20.533Z,80.58
2018-12-30T01:19:24.985Z,81.11
2018-12-30T01:22:29.489Z,80.32
2018-12-30T01:25:33.934Z,80.30
2018-12-30T01:28:38.393Z,80.61
2018-12-30T01:31:43.039Z,80.81
2018-12-30T01:34:47.511Z,80.88
2018-12-30T01:37:52.246Z,81.13
2018-12-30T01:40:56.700Z,81.22
2018-12-30T01:44:01.214Z,80.65
2018-12-30T01:47:05.735Z,79.56
2018-12-30T01:50:10.189Z,79.82
2018-12-30T01:53:15.167Z,79.46
2018-12-30T01:56:19.645Z,79.85
2018-12-30T01:59:24.595Z,79.48
2018-12-30T02:02:29.049Z,79.32
2018-12-30T02:05:33.502Z,79.34
2018-12-30T02:08:38.343Z,78.72
2018-12-30T02:11:42.781Z,78.52
2018-12-30T02:14:47.230Z,78.12
2018-12-30T02:17:51.969Z,78.15
2018-12-30T02:20:56.418Z,78.28
2018-12-30T02:24:00.850Z,78.58
2018-12-30T02:27:05.303Z,78.57
2018-12-30T02:30:09.825Z,78.02
2018-12-30T02:33:14.609Z,78.12
2018-12-30T02:36:19.050Z,78.17
2018-12-30T02:39:23.671Z,77.79
2018-12-30T02:42:28.118Z,78.08
2018-12-30T02:45:32.560Z,77.73
2018-12-30T02:48:37.004Z,77.79
2018-12-30T02:51:50.056Z,77.87
2018-12-30T02:54:47.624Z,77.90
2018-12-30T02:57:52.349Z,77.69
2018-12-30T03:00:56.802Z,78.71
2018-12-30T03:04:01.253Z,78.37
2018-12-30T03:07:06.337Z,78.71
2018-12-30T03:10:10.792Z,78.43
2018-12-30T03:13:15.234Z,78.88
2018-12-30T03:16:19.787Z,79.13
2018-12-30T03:19:24.951Z,78.18
2018-12-30T03:22:29.405Z,78.16
2018-12-30T03:25:34.103Z,78.31
2018-12-30T03:28:38.552Z,78.16
2018-12-30T03:31:43.071Z,78.50
2018-12-30T03:34:47.509Z,79.04
2018-12-30T03:37:51.985Z,79.42
2018-12-30T03:40:56.430Z,79.89
2018-12-30T03:44:00.870Z,79.11
2018-12-30T03:47:05.592Z,79.11
2018-12-30T03:50:10.029Z,79.17
2018-12-30T03:53:14.476Z,79.04
2018-12-30T03:56:18.924Z,79.18
2018-12-30T03:59:23.416Z,78.98
2018-12-30T04:02:27.866Z,79.28
2018-12-30T04:05:32.638Z,79.07
2018-12-30T04:08:37.371Z,79.36
2018-12-30T04:11:41.839Z,78.77
2018-12-30T04:14:46.266Z,78.84
2018-12-30T04:17:50.888Z,78.66
2018-12-30T04:20:55.382Z,79.11
2018-12-30T04:23:59.836Z,79.08
2018-12-30T04:27:04.288Z,78.65
2018-12-30T04:30:08.742Z,78.52
2018-12-30T04:33:13.171Z,78.02
2018-12-30T04:36:18.169Z,78.61
2018-12-30T04:39:22.660Z,79.22
2018-12-30T04:42:27.366Z,79.14
2018-12-30T04:45:31.827Z,78.45
2018-12-30T04:48:36.269Z,78.32
2018-12-30T04:51:40.798Z,78.09
2018-12-30T04:54:45.252Z,78.33
2018-12-30T04:57:50.207Z,78.21
2018-12-30T05:00:54.729Z,78.57
2018-12-30T05:03:59.451Z,78.63
2018-12-30T05:07:03.896Z,78.01
2018-12-30T05:10:08.600Z,78.00
2018-12-30T05:13:13.335Z,78.14
2018-12-30T05:16:18.188Z,78.41
2018-12-30T05:19:22.694Z,78.63
2018-12-30T05:22:33.806Z,77.97
2018-12-30T05:25:33.346Z,78.21
2018-12-30T05:28:37.886Z,77.76
2018-12-30T05:31:42.326Z,77.35
2018-12-30T05:34:46.843Z,76.89
2018-12-30T05:37:51.357Z,76.10
2018-12-30T05:40:55.795Z,76.29
2018-12-30T05:44:00.227Z,76.65
2018-12-30T05:47:06.484Z,77.12
2018-12-30T05:50:11.632Z,77.49
2018-12-30T05:53:16.073Z,77.15
2018-12-30T05:56:20.995Z,77.50
2018-12-30T05:59:25.444Z,77.92
2018-12-30T06:02:29.895Z,77.68
2018-12-30T06:05:34.544Z,77.76
2018-12-30T06:08:39.313Z,78.26
2018-12-30T06:11:44.042Z,77.89
2018-12-30T06:14:48.484Z,78.27
2018-12-30T06:17:52.954Z,78.13
2018-12-30T06:20:57.385Z,78.64
2018-12-30T06:24:02.140Z,78.42
2018-12-30T06:27:06.673Z,78.53
2018-12-30T06:30:11.501Z,78.62
2018-12-30T06:33:16.227Z,77.91
2018-12-30T06:36:20.678Z,77.96
2018-12-30T06:39:25.116Z,77.76
2018-12-30T06:42:29.548Z,77.98
2018-12-30T06:45:33.989Z,78.06
2018-12-30T06:48:38.440Z,77.88
2018-12-30T06:51:42.879Z,77.61
2018-12-30T06:54:47.385Z,77.86
2018-12-30T06:57:51.835Z,77.74
2018-12-30T07:00:56.653Z,77.50
2018-12-30T07:04:01.176Z,78.06
2018-12-30T07:07:05.629Z,77.83
2018-12-30T07:10:10.091Z,77.61
2018-12-30T07:13:14.546Z,77.89
2018-12-30T07:16:19.288Z,77.62
2018-12-30T07:19:23.890Z,77.20
2018-12-30T07:22:28.416Z,77.42
2018-12-30T07:25:32.859Z,77.66
2018-12-30T07:28:37.617Z,77.36
2018-12-30T07:31:42.053Z,77.71
2018-12-30T07:34:46.840Z,77.23
2018-12-30T07:37:51.274Z,77.27
2018-12-30T07:40:56.020Z,77.48
2018-12-30T07:44:00.463Z,77.07
2018-12-30T07:47:05.182Z,77.68
2018-12-30T07:50:09.632Z,78.12
2018-12-30T07:53:14.413Z,78.38
2018-12-30T07:56:19.151Z,77.76
2018-12-30T07:59:23.919Z,77.79
2018-12-30T08:02:28.564Z,77.89
2018-12-30T08:05:33.299Z,78.52
2018-12-30T08:08:37.736Z,78.71
2018-12-30T08:11:42.174Z,78.38
2018-12-30T08:14:46.686Z,78.51
2018-12-30T08:17:51.212Z,78.25
2018-12-30T08:20:55.969Z,78.57
2018-12-30T08:24:00.434Z,77.38
2018-12-30T08:27:04.861Z,77.26
2018-12-30T08:30:09.514Z,77.10
2018-12-30T08:33:13.939Z,77.40
2018-12-30T08:36:18.647Z,77.58
2018-12-30T08:39:23.080Z,76.96
2018-12-30T08:42:27.503Z,76.50
2018-12-30T08:45:31.984Z,76.08
2018-12-30T08:48:36.417Z,76.75
2018-12-30T08:51:40.940Z,76.36
2018-12-30T08:54:45.652Z,74.67
2018-12-30T08:57:50.425Z,75.26
2018-12-30T09:00:54.926Z,75.76
2018-12-30T09:03:59.369Z,75.07
2018-12-30T09:07:03.804Z,74.58
2018-12-30T09:10:09.603Z,74.10
2018-12-30T09:13:14.062Z,74.32
2018-12-30T09:16:19.016Z,73.93
2018-12-30T09:19:23.704Z,74.21
2018-12-30T09:22:28.150Z,74.53
2018-12-30T09:25:32.605Z,73.78
2018-12-30T09:28:37.381Z,73.81
2018-12-30T09:31:42.541Z,74.14
2018-12-30T09:34:46.959Z,74.28
2018-12-30T09:37:51.447Z,74.13
2018-12-30T09:40:56.250Z,74.16
2018-12-30T09:44:00.681Z,74.35
2018-12-30T09:47:05.152Z,73.68
2018-12-30T09:50:09.575Z,73.35
2018-12-30T09:53:14.015Z,74.20
2018-12-30T09:56:18.540Z,73.97
2018-12-30T09:59:22.990Z,74.27
2018-12-30T10:02:27.435Z,74.14
2018-12-30T10:05:31.883Z,74.28
2018-12-30T10:08:36.320Z,74.53
2018-12-30T10:11:41.608Z,74.59
2018-12-30T10:14:46.095Z,75.05
2018-12-30T10:17:50.532Z,75.19
2018-12-30T10:20:54.962Z,75.49
2018-12-30T10:23:59.663Z,75.27
2018-12-30T10:27:04.499Z,75.29
2018-12-30T10:30:10.425Z,75.35
2018-12-30T10:33:14.850Z,75.53
2018-12-30T10:36:19.295Z,74.76
2018-12-30T10:39:23.725Z,74.96
2018-12-30T10:42:28.170Z,75.29
2018-12-30T10:45:32.606Z,74.65
2018-12-30T10:48:37.319Z,75.19
2018-12-30T10:51:41.763Z,74.88
2018-12-30T10:54:46.457Z,74.62
2018-12-30T10:57:50.902Z,74.30
2018-12-30T11:00:55.338Z,74.34
2018-12-30T11:04:00.037Z,74.18
2018-12-30T11:07:04.472Z,74.75
2018-12-30T11:10:08.921Z,74.23
2018-12-30T11:13:13.714Z,74.55
2018-12-30T11:16:18.157Z,74.55
2018-12-30T11:19:22.882Z,74.53
2018-12-30T11:22:27.373Z,74.34
2018-12-30T11:25:31.871Z,73.67
2018-12-30T11:28:36.659Z,74.57
2018-12-30T11:31:41.397Z,74.59
2018-12-30T11:34:45.824Z,74.12
2018-12-30T11:37:50.538Z,74.57
2018-12-30T11:40:54.975Z,74.89
2018-12-30T11:43:59.692Z,74.69
2018-12-30T11:47:04.128Z,74.98
2018-12-30T11:50:10.360Z,75.01
2018-12-30T11:53:15.125Z,74.40
2018-12-30T11:56:20.193Z,75.12
2018-12-30T11:59:24.656Z,75.17
2018-12-30T12:02:29.416Z,74.50
2018-12-30T12:05:33.848Z,74.11
2018-12-30T12:08:38.293Z,73.73
2018-12-30T12:11:42.723Z,73.78
2018-12-30T12:14:47.214Z,73.84
2018-12-30T12:17:51.931Z,74.25
2018-12-30T12:20:56.364Z,73.76
2018-12-30T12:24:00.912Z,73.79
2018-12-30T12:27:05.354Z,72.87
2018-12-30T12:30:09.857Z,73.48
2018-12-30T12:33:14.868Z,74.19
2018-12-30T12:36:20.058Z,73.99
2018-12-30T12:39:24.567Z,74.50
2018-12-30T12:42:29.059Z,74.50
2018-12-30T12:45:33.817Z,75.04
2018-12-30T12:48:38.332Z,74.47
2018-12-30T12:51:43.167Z,73.62
2018-12-30T12:54:47.895Z,74.48
2018-12-30T12:57:52.351Z,73.58
2018-12-30T13:00:58.035Z,74.14
2018-12-30T13:04:02.742Z,74.59
2018-12-30T13:07:07.421Z,74.75
2018-12-30T13:10:12.786Z,75.07
2018-12-30T13:13:17.235Z,75.06
2018-12-30T13:16:21.925Z,74.63
2018-12-30T13:19:26.693Z,74.55
2018-12-30T13:22:31.387Z,74.77
2018-12-30T13:25:35.841Z,74.71
2018-12-30T13:28:40.546Z,74.63
2018-12-30T13:31:44.988Z,75.86
2018-12-30T13:34:49.486Z,75.55
2018-12-30T13:37:54.252Z,75.80
2018-12-30T13:40:58.663Z,76.29
2018-12-30T13:44:03.100Z,76.01
2018-12-30T13:47:07.804Z,75.75
2018-12-30T13:50:12.522Z,75.37
2018-12-30T13:53:17.259Z,76.14
2018-12-30T13:56:21.985Z,75.96
2018-12-30T13:59:26.752Z,75.80
2018-12-30T14:02:31.558Z,76.36
2018-12-30T14:05:36.383Z,76.31
2018-12-30T14:08:40.828Z,75.49
2018-12-30T14:11:45.267Z,74.59
2018-12-30T14:14:50.126Z,74.26
2018-12-30T14:17:54.593Z,73.87
2018-12-30T14:20:59.077Z,73.70
2018-12-30T14:24:03.852Z,72.91
2018-12-30T14:27:08.312Z,73.46
2018-12-30T14:30:12.857Z,74.07
2018-12-30T14:33:17.649Z,73.79
2018-12-30T14:36:22.078Z,73.94
2018-12-30T14:39:26.516Z,73.59
2018-12-30T14:42:31.056Z,74.28
2018-12-30T14:45:35.835Z,73.80
2018-12-30T14:48:40.406Z,73.94
2018-12-30T14:51:44.849Z,74.04
2018-12-30T14:54:49.289Z,73.90
2018-12-30T14:57:53.798Z,73.82
2018-12-30T15:00:58.571Z,74.08
2018-12-30T15:04:03.409Z,73.73
2018-12-30T15:07:08.149Z,73.48
2018-12-30T15:10:12.576Z,74.77
2018-12-30T15:13:17.389Z,74.36
2018-12-30T15:16:21.821Z,74.16
2018-12-30T15:19:26.542Z,73.91
2018-12-30T15:22:31.066Z,74.15
2018-12-30T15:25:35.504Z,73.92
2018-12-30T15:28:39.996Z,73.12
2018-12-30T15:31:44.434Z,72.67
2018-12-30T15:34:48.949Z,73.25
2018-12-30T15:37:53.461Z,72.82
2018-12-30T15:40:58.252Z,73.15
2018-12-30T15:44:02.991Z,72.63
2018-12-30T15:47:07.490Z,72.49
2018-12-30T15:50:12.254Z,72.99
2018-12-30T15:53:17.065Z,73.74
2018-12-30T15:56:21.563Z,74.13
2018-12-30T15:59:26.302Z,73.56
2018-12-30T16:02:30.770Z,74.00
2018-12-30T16:05:35.266Z,73.84
2018-12-30T16:08:39.773Z,74.42
2018-12-30T16:11:44.710Z,74.92
2018-12-30T16:14:49.591Z,74.62
2018-12-30T16:17:54.297Z,75.15
2018-12-30T16:20:58.928Z,75.35
2018-12-30T16:24:03.643Z,75.04
2018-12-30T16:27:08.082Z,75.21
2018-12-30T16:30:12.524Z,75.91
2018-12-30T16:33:17.313Z,76.13
2018-12-30T16:36:21.775Z,76.05
2018-12-30T16:39:26.582Z,75.90
2018-12-30T16:42:31.020Z,75.85
2018-12-30T16:45:35.725Z,76.39
2018-12-30T16:48:40.175Z,76.70
2018-12-30T16:51:44.887Z,76.39
2018-12-30T16:54:49.317Z,77.04
2018-12-30T16:57:54.030Z,77.40
2018-12-30T17:00:58.763Z,78.00
2018-12-30T17:04:03.598Z,78.51
2018-12-30T17:07:08.033Z,78.36
2018-12-30T17:10:12.463Z,78.54
2018-12-30T17:13:16.914Z,78.72
2018-12-30T17:16:21.347Z,78.37
2018-12-30T17:19:26.126Z,78.20
2018-12-30T17:22:30.857Z,77.80
2018-12-30T17:25:42.858Z,77.67
2018-12-30T17:28:41.751Z,77.83
2018-12-30T17:31:46.482Z,78.59
2018-12-30T17:34:50.927Z,78.01
2018-12-30T17:37:55.363Z,78.41
2018-12-30T17:41:01.745Z,78.77
2018-12-30T17:44:06.388Z,78.82
2018-12-30T17:47:11.162Z,78.33
2018-12-30T17:50:16.120Z,78.46
2018-12-30T17:53:20.561Z,78.34
2018-12-30T17:56:25.069Z,78.42
2018-12-30T17:59:29.538Z,78.70
2018-12-30T18:02:33.979Z,78.63
2018-12-30T18:05:38.412Z,78.84
2018-12-30T18:08:43.149Z,78.96
2018-12-30T18:11:47.580Z,78.82
2018-12-30T18:14:52.023Z,78.54
2018-12-30T18:17:56.722Z,78.87
2018-12-30T18:21:01.158Z,78.69
2018-12-30T18:24:05.590Z,78.46
2018-12-30T18:27:10.309Z,78.11
2018-12-30T18:30:14.739Z,77.54
2018-12-30T18:33:19.454Z,77.21
2018-12-30T18:36:23.895Z,77.39
2018-12-30T18:39:28.335Z,77.42
2018-12-30T18:42:32.774Z,77.05
2018-12-30T18:45:37.211Z,77.26
2018-12-30T18:48:42.002Z,76.99
2018-12-30T18:51:46.432Z,77.59
2018-12-30T18:54:50.873Z,76.97
2018-12-30T18:57:55.307Z,76.98
2018-12-30T19:01:00.093Z,76.72
2018-12-30T19:04:04.924Z,76.55
2018-12-30T19:07:09.359Z,76.66
2018-12-30T19:10:13.800Z,76.97
2018-12-30T19:13:18.241Z,77.15
2018-12-30T19:16:22.670Z,77.00
2018-12-30T19:19:27.115Z,76.99
2018-12-30T19:22:31.976Z,77.60
2018-12-30T19:25:36.718Z,77.39
2018-12-30T19:28:41.195Z,77.46
2018-12-30T19:31:45.622Z,77.69
2018-12-30T19:34:50.115Z,77.64
2018-12-30T19:37:54.809Z,77.66
2018-12-30T19:40:59.299Z,77.43
2018-12-30T19:44:03.737Z,77.45
2018-12-30T19:47:09.462Z,77.62
2018-12-30T19:50:13.919Z,78.10
2018-12-30T19:53:18.768Z,78.21
2018-12-30T19:56:23.152Z,78.43
2018-12-30T19:59:27.592Z,78.33
2018-12-30T20:02:32.350Z,78.14
2018-12-30T20:05:36.789Z,78.46
2018-12-30T20:08:41.507Z,78.62
2018-12-30T20:11:46.249Z,78.50
2018-12-30T20:14:50.813Z,78.96
2018-12-30T20:17:55.250Z,79.25
2018-12-30T20:20:59.694Z,79.80
2018-12-30T20:24:04.118Z,79.79
2018-12-30T20:27:08.558Z,80.08
2018-12-30T20:30:13.286Z,80.32
2018-12-30T20:33:17.718Z,80.58
2018-12-30T20:36:22.165Z,80.97
2018-12-30T20:39:26.606Z,81.16
2018-12-30T20:42:31.302Z,81.64
2018-12-30T20:45:36.019Z,82.46
2018-12-30T20:48:40.452Z,82.57
2018-12-30T20:51:44.887Z,83.01
2018-12-30T20:54:49.399Z,83.68
2018-12-30T20:57:53.833Z,84.10
2018-12-30T21:00:58.549Z,84.61
2018-12-30T21:04:02.985Z,84.88
2018-12-30T21:07:07.702Z,85.01
2018-12-30T21:10:12.441Z,85.20
2018-12-30T21:13:17.171Z,85.22
2018-12-30T21:16:21.894Z,85.07
2018-12-30T21:19:26.323Z,85.21
2018-12-30T21:22:31.051Z,85.48
2018-12-30T21:25:35.776Z,85.17
2018-12-30T21:28:40.510Z,85.57
2018-12-30T21:31:45.010Z,85.91
2018-12-30T21:34:49.444Z,85.86
2018-12-30T21:37:53.897Z,85.96
2018-12-30T21:40:58.714Z,85.90
2018-12-30T21:44:03.455Z,86.01
2018-12-30T21:47:08.194Z,86.04
2018-12-30T21:50:12.912Z,86.40
2018-12-30T21:53:17.346Z,86.40
2018-12-30T21:56:21.788Z,86.58
2018-12-30T21:59:26.397Z,86.51
2018-12-30T22:02:30.876Z,86.38
2018-12-30T22:05:35.325Z,86.30
2018-12-30T22:08:39.769Z,86.57
2018-12-30T22:11:44.212Z,86.59
2018-12-30T22:14:48.652Z,86.45
2018-12-30T22:17:53.094Z,86.38
2018-12-30T22:20:57.542Z,86.47
2018-12-30T22:24:02.492Z,86.54
2018-12-30T22:27:06.945Z,86.29
2018-12-30T22:30:11.373Z,86.62
2018-12-30T22:33:15.809Z,86.73
2018-12-30T22:36:20.261Z,86.68
2018-12-30T22:39:24.699Z,86.79
2018-12-30T22:42:32.933Z,86.92
2018-12-30T22:45:35.914Z,86.74
2018-12-30T22:48:40.652Z,86.34
2018-12-30T22:51:46.241Z,85.93
2018-12-30T22:54:50.923Z,86.45
2018-12-30T22:57:55.368Z,85.90
2018-12-30T23:01:01.827Z,85.63
2018-12-30T23:04:06.548Z,85.88
2018-12-30T23:07:10.992Z,86.17
2018-12-30T23:10:15.704Z,86.28
2018-12-30T23:13:22.136Z,86.50
2018-12-30T23:16:26.628Z,85.68
2018-12-30T23:19:31.330Z,85.67
2018-12-30T23:22:35.773Z,85.44
2018-12-30T23:25:40.284Z,84.98
2018-12-30T23:28:44.797Z,85.08
2018-12-30T23:31:49.234Z,84.94
2018-12-30T23:34:53.675Z,84.80
2018-12-30T23:37:58.405Z,84.89
2018-12-30T23:41:02.832Z,84.85
2018-12-30T23:44:09.364Z,84.76
2018-12-30T23:47:14.022Z,85.60
2018-12-30T23:50:18.789Z,85.34
2018-12-30T23:53:23.259Z,85.77
2018-12-30T23:56:28.189Z,85.92
2018-12-30T23:59:32.733Z,86.29
